createdAt,value
2022-12-28T00:01:37.572Z,92.17
2022-12-28T00:04:09.809Z,92.37
2022-12-28T00:06:39.647Z,92.36
2022-12-28T00:09:14.885Z,92.18
2022-12-28T00:11:45.277Z,92.00
2022-12-28T00:14:17.249Z,93.34
2022-12-28T00:16:48.038Z,92.12
2022-12-28T00:19:19.698Z,92.39
2022-12-28T00:21:51.208Z,92.42
2022-12-28T00:24:26.121Z,92.19
2022-12-28T00:26:57.004Z,92.38
2022-12-28T00:29:27.718Z,92.74
2022-12-28T00:31:57.958Z,92.80
2022-12-28T00:34:27.880Z,93.31
2022-12-28T00:37:10.587Z,93.02
2022-12-28T00:39:46.264Z,93.11
2022-12-28T00:42:18.252Z,93.04
2022-12-28T00:44:48.020Z,92.56
2022-12-28T00:47:19.582Z,92.47
2022-12-28T00:49:50.272Z,92.26
2022-12-28T00:52:20.385Z,92.08
2022-12-28T00:54:53.113Z,91.61
2022-12-28T00:57:23.215Z,91.58
2022-12-28T00:59:54.088Z,91.64
2022-12-28T01:02:24.011Z,91.59
2022-12-28T01:04:55.911Z,91.58
2022-12-28T01:07:26.954Z,91.43
2022-12-28T01:10:02.383Z,91.27
2022-12-28T01:12:37.902Z,91.53
2022-12-28T01:15:12.415Z,91.86
2022-12-28T01:17:43.956Z,91.57
2022-12-28T01:20:14.905Z,91.52
2022-12-28T01:22:44.757Z,91.95
2022-12-28T01:25:18.202Z,91.68
2022-12-28T01:27:48.436Z,91.43
2022-12-28T01:30:19.989Z,91.03
2022-12-28T01:32:49.943Z,91.29
2022-12-28T01:35:19.903Z,91.24
2022-12-28T01:37:49.672Z,91.21
2022-12-28T01:40:22.327Z,91.34
2022-12-28T01:42:52.247Z,91.30
2022-12-28T01:45:24.901Z,91.06
2022-12-28T01:47:59.083Z,91.57
2022-12-28T01:50:32.341Z,91.86
2022-12-28T01:53:08.170Z,92.91
2022-12-28T01:55:44.599Z,92.85
2022-12-28T01:58:20.356Z,92.99
2022-12-28T02:00:50.333Z,92.92
2022-12-28T02:03:25.855Z,92.33
2022-12-28T02:06:00.327Z,93.13
2022-12-28T02:08:38.735Z,92.78
2022-12-28T02:11:18.535Z,92.86
2022-12-28T02:13:51.697Z,92.91
2022-12-28T02:16:21.874Z,92.85
2022-12-28T02:18:53.827Z,92.48
2022-12-28T02:21:41.426Z,92.74
2022-12-28T02:24:40.782Z,92.38
2022-12-28T02:27:28.407Z,92.23
2022-12-28T02:30:10.726Z,92.13
2022-12-28T02:32:54.121Z,92.15
2022-12-28T02:35:36.191Z,92.24
2022-12-28T02:38:14.562Z,92.16
2022-12-28T02:40:51.667Z,91.96
2022-12-28T02:43:22.265Z,91.67
2022-12-28T02:46:09.683Z,91.66
2022-12-28T02:48:56.452Z,91.79
2022-12-28T02:51:47.935Z,91.55
2022-12-28T02:54:52.550Z,91.44
2022-12-28T02:57:42.408Z,91.01
2022-12-28T03:00:19.195Z,90.84
2022-12-28T03:03:24.301Z,91.05
2022-12-28T03:06:19.776Z,91.67
2022-12-28T03:09:03.020Z,91.68
2022-12-28T03:11:43.025Z,91.68
2022-12-28T03:14:23.371Z,91.38
2022-12-28T03:17:13.529Z,91.16
2022-12-28T03:20:05.341Z,91.64
2022-12-28T03:22:55.548Z,91.92
2022-12-28T03:25:43.639Z,91.55
2022-12-28T03:28:34.141Z,91.41
2022-12-28T03:31:13.184Z,91.55
2022-12-28T03:34:06.890Z,91.18
2022-12-28T03:36:59.707Z,92.10
2022-12-28T03:39:43.386Z,92.04
2022-12-28T03:42:32.530Z,92.66
2022-12-28T03:45:13.306Z,92.68
2022-12-28T03:47:47.734Z,92.65
2022-12-28T03:50:19.986Z,92.88
2022-12-28T03:52:54.798Z,92.17
2022-12-28T03:55:28.292Z,91.78
2022-12-28T03:57:58.942Z,91.93
2022-12-28T04:00:32.229Z,91.63
2022-12-28T04:03:02.952Z,92.02
2022-12-28T04:05:33.107Z,91.44
2022-12-28T04:08:06.043Z,92.04
2022-12-28T04:10:37.240Z,91.89
2022-12-28T04:13:07.235Z,91.41
2022-12-28T04:15:57.637Z,91.63
2022-12-28T04:18:27.994Z,91.31
2022-12-28T04:20:58.378Z,91.20
2022-12-28T04:23:31.378Z,91.19
2022-12-28T04:26:23.221Z,90.84
2022-12-28T04:29:00.778Z,90.29
2022-12-28T04:31:34.541Z,90.75
2022-12-28T04:34:12.496Z,90.68
2022-12-28T04:36:47.269Z,90.78
2022-12-28T04:39:23.591Z,91.08
2022-12-28T04:41:56.045Z,90.79
2022-12-28T04:44:25.989Z,90.49
2022-12-28T04:46:56.508Z,90.79
2022-12-28T04:49:27.741Z,90.36
2022-12-28T04:51:57.849Z,90.16
2022-12-28T04:54:30.283Z,90.34
2022-12-28T04:57:02.420Z,90.44
2022-12-28T04:59:32.229Z,90.23
2022-12-28T05:02:02.278Z,90.11
2022-12-28T05:04:32.182Z,89.83
2022-12-28T05:07:02.156Z,90.17
2022-12-28T05:09:35.699Z,90.05
2022-12-28T05:12:05.741Z,89.90
2022-12-28T05:14:37.280Z,89.60
2022-12-28T05:17:07.474Z,89.38
2022-12-28T05:19:37.597Z,89.48
2022-12-28T05:22:11.829Z,89.34
2022-12-28T05:24:45.275Z,88.98
2022-12-28T05:27:15.357Z,88.65
2022-12-28T05:29:45.223Z,89.15
2022-12-28T05:32:15.337Z,89.19
2022-12-28T05:34:45.522Z,89.03
2022-12-28T05:37:21.675Z,88.86
2022-12-28T05:39:56.730Z,88.67
2022-12-28T05:42:27.139Z,88.51
2022-12-28T05:44:57.183Z,88.10
2022-12-28T05:47:29.365Z,87.60
2022-12-28T05:50:00.230Z,87.76
2022-12-28T05:52:32.727Z,87.90
2022-12-28T05:55:05.220Z,87.61
2022-12-28T05:57:35.144Z,87.57
2022-12-28T06:00:05.758Z,87.21
2022-12-28T06:02:42.065Z,87.28
2022-12-28T06:05:12.679Z,87.54
2022-12-28T06:07:43.643Z,87.80
2022-12-28T06:10:17.401Z,88.10
2022-12-28T06:12:47.478Z,88.49
2022-12-28T06:15:17.400Z,88.69
2022-12-28T06:17:47.477Z,88.36
2022-12-28T06:20:17.680Z,88.91
2022-12-28T06:22:48.028Z,88.77
2022-12-28T06:25:20.649Z,88.26
2022-12-28T06:27:50.651Z,87.93
2022-12-28T06:30:23.213Z,87.96
2022-12-28T06:32:53.067Z,87.84
2022-12-28T06:35:24.643Z,87.82
2022-12-28T06:37:54.537Z,88.22
2022-12-28T06:40:39.482Z,88.76
2022-12-28T06:43:17.516Z,89.00
2022-12-28T06:45:57.388Z,89.12
2022-12-28T06:48:27.239Z,89.35
2022-12-28T06:50:58.834Z,89.60
2022-12-28T06:53:31.724Z,90.37
2022-12-28T06:56:06.576Z,89.77
2022-12-28T06:58:38.164Z,90.25
2022-12-28T07:01:13.574Z,89.69
2022-12-28T07:03:43.824Z,89.83
2022-12-28T07:06:15.842Z,89.77
2022-12-28T07:08:46.189Z,90.01
2022-12-28T07:11:21.404Z,89.02
2022-12-28T07:13:52.424Z,88.87
2022-12-28T07:16:25.230Z,89.31
2022-12-28T07:18:55.150Z,89.17
2022-12-28T07:21:27.373Z,89.06
2022-12-28T07:23:58.492Z,88.77
2022-12-28T07:26:33.662Z,89.05
2022-12-28T07:29:05.536Z,88.65
2022-12-28T07:31:44.092Z,88.52
2022-12-28T07:34:16.147Z,88.30
2022-12-28T07:36:49.463Z,88.17
2022-12-28T07:39:19.351Z,87.84
2022-12-28T07:41:56.464Z,87.80
2022-12-28T07:44:29.595Z,87.54
2022-12-28T07:47:00.920Z,87.37
2022-12-28T07:49:30.815Z,87.66
2022-12-28T07:52:00.919Z,86.90
2022-12-28T07:54:30.771Z,87.32
2022-12-28T07:57:06.970Z,86.60
2022-12-28T07:59:39.434Z,86.41
2022-12-28T08:02:10.614Z,86.50
2022-12-28T08:04:41.077Z,85.81
2022-12-28T08:07:11.254Z,84.71
2022-12-28T08:09:41.077Z,86.39
2022-12-28T08:12:13.655Z,84.58
2022-12-28T08:14:43.855Z,84.38
2022-12-28T08:17:17.486Z,84.54
2022-12-28T08:19:52.628Z,83.93
2022-12-28T08:22:22.876Z,83.14
2022-12-28T08:24:53.201Z,82.21
2022-12-28T08:27:25.727Z,81.48
2022-12-28T08:29:55.563Z,81.74
2022-12-28T08:32:25.474Z,81.51
2022-12-28T08:34:55.344Z,81.01
2022-12-28T08:37:25.408Z,81.00
2022-12-28T08:39:55.220Z,80.56
2022-12-28T08:42:28.278Z,81.02
2022-12-28T08:44:58.163Z,80.70
2022-12-28T08:47:28.555Z,80.21
2022-12-28T08:49:59.176Z,80.58
2022-12-28T08:52:29.313Z,81.12
2022-12-28T08:54:59.548Z,80.45
2022-12-28T08:57:32.168Z,80.22
2022-12-28T09:00:02.181Z,79.67
2022-12-28T09:02:32.096Z,79.75
2022-12-28T09:05:02.343Z,79.41
2022-12-28T09:07:32.305Z,77.41
2022-12-28T09:10:04.664Z,78.77
2022-12-28T09:12:38.563Z,78.03
2022-12-28T09:15:09.778Z,77.34
2022-12-28T09:17:39.998Z,77.09
2022-12-28T09:20:11.028Z,76.62
2022-12-28T09:22:40.870Z,73.93
2022-12-28T09:25:13.626Z,72.18
2022-12-28T09:27:46.516Z,70.82
2022-12-28T09:30:17.848Z,71.16
2022-12-28T09:33:07.668Z,69.93
2022-12-28T09:35:37.479Z,69.31
2022-12-28T09:38:07.517Z,69.34
2022-12-28T09:40:39.273Z,67.98
2022-12-28T09:43:14.950Z,67.41
2022-12-28T09:45:49.119Z,63.19
2022-12-28T09:48:26.918Z,59.96
2022-12-28T09:50:57.920Z,53.98
2022-12-28T09:53:33.522Z,52.51
2022-12-28T09:56:08.630Z,52.14
2022-12-28T09:58:48.192Z,53.96
2022-12-28T10:01:21.938Z,56.32
2022-12-28T10:03:52.451Z,56.93
2022-12-28T10:06:27.921Z,57.21
2022-12-28T10:09:01.477Z,56.83
2022-12-28T10:11:36.296Z,58.45
2022-12-28T10:14:21.904Z,59.74
2022-12-28T10:16:51.779Z,60.40
2022-12-28T10:19:26.064Z,60.37
2022-12-28T10:22:03.014Z,61.14
2022-12-28T10:24:33.834Z,62.14
2022-12-28T10:27:07.965Z,62.79
2022-12-28T10:29:41.009Z,63.55
2022-12-28T10:32:12.808Z,63.48
2022-12-28T10:34:58.746Z,65.16
2022-12-28T10:37:33.050Z,64.08
2022-12-28T10:40:06.958Z,63.24
2022-12-28T10:42:43.045Z,63.24
2022-12-28T10:45:25.619Z,62.68
2022-12-28T10:47:58.512Z,61.78
2022-12-28T10:50:44.992Z,62.26
2022-12-28T10:53:30.686Z,61.88
2022-12-28T10:56:10.259Z,62.40
2022-12-28T10:58:40.238Z,61.57
2022-12-28T11:01:21.328Z,61.57
2022-12-28T11:04:06.552Z,60.72
2022-12-28T11:06:38.537Z,59.50
2022-12-28T11:09:18.904Z,55.97
2022-12-28T11:11:52.397Z,54.92
2022-12-28T11:14:33.376Z,54.91
2022-12-28T11:17:21.073Z,54.23
2022-12-28T11:19:55.058Z,54.01
2022-12-28T11:22:35.229Z,52.79
2022-12-28T11:25:08.808Z,52.62
2022-12-28T11:27:39.448Z,53.21
2022-12-28T11:30:18.115Z,54.27
2022-12-28T11:32:59.422Z,53.40
2022-12-28T11:35:33.061Z,53.06
2022-12-28T11:38:06.118Z,53.33
2022-12-28T11:40:55.789Z,53.09
2022-12-28T11:43:43.576Z,53.48
2022-12-28T11:46:42.283Z,52.97
2022-12-28T11:49:34.969Z,53.12
2022-12-28T11:52:46.266Z,52.93
2022-12-28T11:55:57.427Z,52.79
2022-12-28T11:59:09.637Z,53.18
2022-12-28T12:02:00.994Z,53.83
2022-12-28T12:04:49.775Z,54.03
2022-12-28T12:07:31.208Z,54.40
2022-12-28T12:10:31.927Z,53.33
2022-12-28T12:13:02.748Z,53.49
2022-12-28T12:15:45.752Z,53.67
2022-12-28T12:18:23.982Z,53.99
2022-12-28T12:21:07.663Z,54.35
2022-12-28T12:23:48.991Z,53.66
2022-12-28T12:26:28.308Z,53.85
2022-12-28T12:29:05.118Z,53.23
2022-12-28T12:31:44.190Z,53.21
2022-12-28T12:34:24.993Z,53.86
2022-12-28T12:37:29.132Z,54.47
2022-12-28T12:40:31.712Z,54.09
2022-12-28T12:43:25.812Z,54.70
2022-12-28T12:46:14.798Z,54.01
2022-12-28T12:49:10.634Z,53.55
2022-12-28T12:51:53.835Z,53.30
2022-12-28T12:54:46.632Z,53.92
2022-12-28T12:57:26.762Z,52.72
2022-12-28T13:00:14.995Z,52.98
2022-12-28T13:03:09.591Z,53.28
2022-12-28T13:05:45.305Z,53.12
2022-12-28T13:08:25.901Z,53.68
2022-12-28T13:10:59.131Z,53.43
2022-12-28T13:13:35.676Z,53.46
2022-12-28T13:16:12.177Z,54.09
2022-12-28T13:18:45.087Z,52.77
2022-12-28T13:21:22.339Z,53.48
2022-12-28T13:23:54.625Z,53.82
2022-12-28T13:26:30.922Z,53.29
2022-12-28T13:29:03.824Z,52.64
2022-12-28T13:31:42.350Z,52.71
2022-12-28T13:34:21.627Z,52.52
2022-12-28T13:36:54.422Z,52.56
2022-12-28T13:39:26.288Z,52.08
2022-12-28T13:42:05.248Z,51.79
2022-12-28T13:44:46.135Z,52.34
2022-12-28T13:47:28.287Z,52.23
2022-12-28T13:50:04.177Z,52.82
2022-12-28T13:52:42.177Z,53.00
2022-12-28T13:55:19.767Z,53.52
2022-12-28T13:58:00.106Z,53.02
2022-12-28T14:00:33.422Z,53.07
2022-12-28T14:03:06.851Z,52.99
2022-12-28T14:05:36.918Z,53.25
2022-12-28T14:08:09.837Z,52.10
2022-12-28T14:10:40.997Z,51.09
2022-12-28T14:13:14.595Z,51.50
2022-12-28T14:15:46.048Z,52.04
2022-12-28T14:18:18.602Z,52.56
2022-12-28T14:20:49.877Z,51.82
2022-12-28T14:23:24.229Z,52.42
2022-12-28T14:25:59.684Z,52.33
2022-12-28T14:28:40.978Z,52.44
2022-12-28T14:31:16.212Z,52.72
2022-12-28T14:33:55.687Z,52.82
2022-12-28T14:36:31.423Z,52.88
2022-12-28T14:39:06.629Z,53.37
2022-12-28T14:41:42.543Z,53.42
2022-12-28T14:44:24.661Z,53.81
2022-12-28T14:46:56.020Z,53.46
2022-12-28T14:49:42.682Z,52.99
2022-12-28T14:52:44.824Z,53.04
2022-12-28T14:55:33.445Z,52.05
2022-12-28T14:58:08.901Z,52.49
2022-12-28T15:00:41.455Z,52.43
2022-12-28T15:03:19.572Z,52.58
2022-12-28T15:05:52.810Z,52.46
2022-12-28T15:08:23.107Z,51.87
2022-12-28T15:10:55.711Z,51.60
2022-12-28T15:13:30.196Z,52.38
2022-12-28T15:16:04.808Z,52.61
2022-12-28T15:18:34.868Z,52.27
2022-12-28T15:21:07.311Z,52.88
2022-12-28T15:23:37.932Z,53.00
2022-12-28T15:26:11.447Z,53.00
2022-12-28T15:28:45.053Z,53.39
2022-12-28T15:31:20.529Z,53.88
2022-12-28T15:33:52.105Z,54.37
2022-12-28T15:36:24.949Z,54.56
2022-12-28T15:38:54.901Z,54.66
2022-12-28T15:41:38.781Z,54.90
2022-12-28T15:44:09.204Z,55.63
2022-12-28T15:46:45.493Z,56.18
2022-12-28T15:49:17.616Z,56.52
2022-12-28T15:51:51.869Z,57.27
2022-12-28T15:54:22.990Z,58.18
2022-12-28T15:56:59.158Z,58.03
2022-12-28T15:59:29.646Z,58.42
2022-12-28T16:02:02.550Z,58.90
2022-12-28T16:04:33.036Z,59.49
2022-12-28T16:07:03.636Z,60.06
2022-12-28T16:09:36.611Z,60.61
2022-12-28T16:12:07.312Z,61.31
2022-12-28T16:14:37.227Z,61.19
2022-12-28T16:17:09.786Z,62.01
2022-12-28T16:19:39.652Z,62.46
2022-12-28T16:22:10.192Z,63.50
2022-12-28T16:24:40.412Z,63.52
2022-12-28T16:27:12.462Z,64.35
2022-12-28T16:29:42.706Z,64.75
2022-12-28T16:32:15.980Z,65.57
2022-12-28T16:34:48.763Z,66.19
2022-12-28T16:37:21.054Z,66.81
2022-12-28T16:39:54.225Z,66.76
2022-12-28T16:42:24.078Z,67.19
2022-12-28T16:44:54.304Z,67.45
2022-12-28T16:47:27.372Z,67.71
2022-12-28T16:49:58.674Z,68.82
2022-12-28T16:52:28.919Z,69.17
2022-12-28T16:54:59.511Z,70.19
2022-12-28T16:57:30.423Z,70.63
2022-12-28T17:00:00.277Z,71.02
2022-12-28T17:02:36.665Z,71.20
2022-12-28T17:05:07.616Z,70.57
2022-12-28T17:07:44.595Z,70.94
2022-12-28T17:10:16.449Z,70.79
2022-12-28T17:12:48.025Z,71.68
2022-12-28T17:15:19.208Z,71.51
2022-12-28T17:17:52.069Z,71.62
2022-12-28T17:20:22.403Z,71.56
2022-12-28T17:22:54.002Z,70.97
2022-12-28T17:25:24.096Z,70.98
2022-12-28T17:27:54.394Z,71.35
2022-12-28T17:30:25.492Z,71.52
2022-12-28T17:33:00.876Z,71.24
2022-12-28T17:35:32.908Z,71.96
2022-12-28T17:38:03.062Z,71.67
2022-12-28T17:40:33.015Z,71.81
2022-12-28T17:43:02.848Z,73.02
2022-12-28T17:45:35.261Z,72.68
2022-12-28T17:48:08.421Z,72.89
2022-12-28T17:50:38.291Z,72.60
2022-12-28T17:53:08.218Z,72.18
2022-12-28T17:55:39.539Z,72.05
2022-12-28T17:58:09.845Z,72.41
2022-12-28T18:00:42.119Z,72.56
2022-12-28T18:03:15.172Z,72.78
2022-12-28T18:05:45.179Z,73.16
2022-12-28T18:08:15.396Z,72.61
2022-12-28T18:10:46.696Z,73.22
2022-12-28T18:13:18.567Z,73.87
2022-12-28T18:15:50.640Z,74.01
2022-12-28T18:18:23.287Z,74.25
2022-12-28T18:21:01.516Z,74.01
2022-12-28T18:23:32.596Z,73.95
2022-12-28T18:26:07.491Z,74.80
2022-12-28T18:28:38.238Z,74.96
2022-12-28T18:31:11.451Z,74.92
2022-12-28T18:33:44.149Z,75.18
2022-12-28T18:36:18.003Z,75.42
2022-12-28T18:38:50.178Z,75.06
2022-12-28T18:41:25.497Z,76.08
2022-12-28T18:43:57.353Z,75.83
2022-12-28T18:46:27.287Z,75.06
2022-12-28T18:49:00.574Z,74.94
2022-12-28T18:51:30.730Z,74.56
2022-12-28T18:54:02.033Z,74.70
2022-12-28T18:56:33.651Z,73.75
2022-12-28T18:59:03.924Z,73.79
2022-12-28T19:04:31.484Z,73.13
2022-12-28T19:07:01.661Z,73.45
2022-12-28T19:09:31.571Z,72.24
2022-12-28T19:12:01.848Z,72.17
2022-12-28T19:14:32.013Z,71.99
2022-12-28T19:17:02.201Z,71.76
2022-12-28T19:19:34.603Z,70.66
2022-12-28T19:22:05.722Z,71.54
2022-12-28T19:24:37.774Z,71.29
2022-12-28T19:27:08.175Z,71.20
2022-12-28T19:29:38.119Z,70.66
2022-12-28T19:32:08.615Z,71.30
2022-12-28T19:34:41.821Z,71.26
2022-12-28T19:37:12.326Z,71.58
2022-12-28T19:39:42.439Z,72.03
2022-12-28T19:42:12.292Z,72.50
2022-12-28T19:44:42.413Z,72.70
2022-12-28T19:47:12.910Z,72.50
2022-12-28T19:49:45.489Z,73.32
2022-12-28T19:52:15.915Z,73.25
2022-12-28T19:54:47.918Z,73.87
2022-12-28T19:57:17.757Z,73.86
2022-12-28T19:59:47.787Z,73.72
2022-12-28T20:02:18.377Z,73.38
2022-12-28T20:04:51.099Z,74.28
2022-12-28T20:07:21.167Z,75.02
2022-12-28T20:09:52.177Z,74.88
2022-12-28T20:12:23.971Z,74.83
2022-12-28T20:14:54.004Z,75.75
2022-12-28T20:17:23.982Z,75.45
2022-12-28T20:19:56.722Z,75.22
2022-12-28T20:22:27.179Z,74.85
2022-12-28T20:24:57.408Z,74.83
2022-12-28T20:27:30.605Z,74.22
2022-12-28T20:30:00.751Z,73.70
2022-12-28T20:32:31.082Z,73.63
2022-12-28T20:35:03.987Z,72.58
2022-12-28T20:37:36.676Z,73.24
2022-12-28T20:40:07.713Z,72.53
2022-12-28T20:42:50.336Z,72.42
2022-12-28T20:45:21.091Z,72.06
2022-12-28T20:47:51.380Z,71.45
2022-12-28T20:50:24.701Z,71.37
2022-12-28T20:52:57.443Z,70.77
2022-12-28T20:55:27.685Z,70.97
2022-12-28T20:57:58.159Z,70.22
2022-12-28T21:00:28.162Z,70.13
2022-12-28T21:02:58.275Z,69.57
2022-12-28T21:05:31.398Z,69.67
2022-12-28T21:08:01.538Z,69.80
2022-12-28T21:10:33.567Z,68.47
2022-12-28T21:13:03.819Z,68.10
2022-12-28T21:15:34.262Z,66.92
2022-12-28T21:18:04.472Z,66.51
2022-12-28T21:20:39.252Z,67.16
2022-12-28T21:23:09.559Z,67.58
2022-12-28T21:25:39.967Z,66.46
2022-12-28T21:28:12.312Z,66.85
2022-12-28T21:30:42.700Z,66.87
2022-12-28T21:33:13.874Z,66.93
2022-12-28T21:35:46.503Z,67.29
2022-12-28T21:38:16.707Z,67.62
2022-12-28T21:40:47.524Z,67.72
2022-12-28T21:43:18.556Z,67.73
2022-12-28T21:46:02.265Z,67.91
2022-12-28T21:48:34.377Z,67.96
2022-12-28T21:51:31.459Z,67.60
2022-12-28T21:54:03.505Z,67.87
2022-12-28T21:56:35.694Z,67.48
2022-12-28T21:59:06.419Z,67.36
2022-12-28T22:01:49.629Z,67.19
2022-12-28T22:04:34.546Z,66.96
2022-12-28T22:07:08.970Z,67.32
2022-12-28T22:09:52.181Z,66.99
2022-12-28T22:12:41.728Z,66.67
2022-12-28T22:15:26.596Z,66.44
2022-12-28T22:17:59.222Z,66.41
2022-12-28T22:20:31.803Z,65.80
2022-12-28T22:23:05.741Z,66.00
2022-12-28T22:25:38.534Z,65.84
2022-12-28T22:28:09.828Z,65.61
2022-12-28T22:30:40.155Z,65.13
2022-12-28T22:33:10.477Z,65.53
2022-12-28T22:35:40.364Z,65.49
2022-12-28T22:38:13.689Z,65.75
2022-12-28T22:40:47.794Z,64.99
2022-12-28T22:43:18.256Z,64.98
2022-12-28T22:45:48.407Z,65.47
2022-12-28T22:48:19.457Z,64.51
2022-12-28T22:50:49.615Z,64.43
2022-12-28T22:53:23.979Z,64.14
2022-12-28T22:56:01.464Z,63.95
2022-12-28T22:58:32.810Z,63.94
2022-12-28T23:01:07.818Z,63.67
2022-12-28T23:03:52.165Z,64.01
2022-12-28T23:06:23.533Z,64.10
2022-12-28T23:08:56.904Z,63.87
2022-12-28T23:11:40.518Z,63.78
2022-12-28T23:14:26.980Z,63.21
2022-12-28T23:16:57.981Z,63.42
2022-12-28T23:19:40.444Z,62.80
2022-12-28T23:22:27.199Z,62.72
2022-12-28T23:25:13.214Z,62.01
2022-12-28T23:27:47.274Z,62.22
2022-12-28T23:30:20.122Z,61.72
2022-12-28T23:32:52.153Z,61.32
2022-12-28T23:35:24.509Z,61.21
2022-12-28T23:37:55.651Z,61.27
2022-12-28T23:40:29.035Z,60.60
2022-12-28T23:42:59.068Z,60.87
2022-12-28T23:45:29.946Z,61.05
2022-12-28T23:47:59.796Z,60.99
2022-12-28T23:50:32.451Z,61.01
2022-12-28T23:53:06.254Z,61.28
2022-12-28T23:55:40.687Z,61.28
2022-12-28T23:58:11.679Z,61.54
